sensor_id;sensor_type;location;lat;lon;timestamp;P1;durP1;ratioP1;P2;durP2;ratioP2
77872;SDS011;67068;52.116;4.440;2023-03-23T00:00:42;4.40;;;1.50;;
77872;SDS011;67068;52.116;4.440;2023-03-23T00:03:07;8.43;;;1.90;;
77872;SDS011;67068;52.116;4.440;2023-03-23T00:05:32;5.53;;;1.30;;
77872;SDS011;67068;52.116;4.440;2023-03-23T00:07:57;6.43;;;1.67;;
77872;SDS011;67068;52.116;4.440;2023-03-23T00:10:24;5.88;;;1.67;;
77872;SDS011;67068;52.116;4.440;2023-03-23T00:12:51;4.50;;;1.30;;
77872;SDS011;67068;52.116;4.440;2023-03-23T00:15:16;4.93;;;1.47;;
77872;SDS011;67068;52.116;4.440;2023-03-23T00:17:41;6.55;;;1.70;;
77872;SDS011;67068;52.116;4.440;2023-03-23T00:20:08;6.20;;;1.58;;
77872;SDS011;67068;52.116;4.440;2023-03-23T00:22:35;4.57;;;1.40;;
77872;SDS011;67068;52.116;4.440;2023-03-23T00:25:03;5.03;;;1.50;;
77872;SDS011;67068;52.116;4.440;2023-03-23T00:27:29;6.05;;;1.77;;
77872;SDS011;67068;52.116;4.440;2023-03-23T00:29:54;7.30;;;1.83;;
77872;SDS011;67068;52.116;4.440;2023-03-23T00:32:21;5.28;;;1.30;;
77872;SDS011;67068;52.116;4.440;2023-03-23T00:34:54;2.97;;;1.25;;
77872;SDS011;67068;52.116;4.440;2023-03-23T00:37:19;4.63;;;1.55;;
77872;SDS011;67068;52.116;4.440;2023-03-23T00:39:45;5.00;;;1.50;;
77872;SDS011;67068;52.116;4.440;2023-03-23T00:42:14;5.55;;;1.48;;
77872;SDS011;67068;52.116;4.440;2023-03-23T00:44:40;4.20;;;1.45;;
77872;SDS011;67068;52.116;4.440;2023-03-23T00:47:05;4.85;;;1.35;;
77872;SDS011;67068;52.116;4.440;2023-03-23T00:49:32;4.03;;;1.40;;
77872;SDS011;67068;52.116;4.440;2023-03-23T00:52:01;3.60;;;1.30;;
77872;SDS011;67068;52.116;4.440;2023-03-23T00:54:27;4.53;;;1.20;;
77872;SDS011;67068;52.116;4.440;2023-03-23T00:56:53;3.97;;;1.20;;
77872;SDS011;67068;52.116;4.440;2023-03-23T00:59:19;5.72;;;1.40;;
77872;SDS011;67068;52.116;4.440;2023-03-23T01:01:44;4.80;;;1.30;;
77872;SDS011;67068;52.116;4.440;2023-03-23T01:04:10;3.58;;;1.20;;
77872;SDS011;67068;52.116;4.440;2023-03-23T01:06:37;3.83;;;1.33;;
77872;SDS011;67068;52.116;4.440;2023-03-23T01:09:04;4.85;;;1.40;;
77872;SDS011;67068;52.116;4.440;2023-03-23T01:11:29;7.38;;;1.70;;
77872;SDS011;67068;52.116;4.440;2023-03-23T01:13:54;4.80;;;1.20;;
77872;SDS011;67068;52.116;4.440;2023-03-23T01:16:20;4.60;;;1.30;;
77872;SDS011;67068;52.116;4.440;2023-03-23T01:18:45;4.57;;;1.10;;
77872;SDS011;67068;52.116;4.440;2023-03-23T01:21:12;3.75;;;1.02;;
77872;SDS011;67068;52.116;4.440;2023-03-23T01:23:37;3.88;;;1.10;;
77872;SDS011;67068;52.116;4.440;2023-03-23T01:26:07;5.80;;;1.50;;
77872;SDS011;67068;52.116;4.440;2023-03-23T01:28:33;5.05;;;1.25;;
77872;SDS011;67068;52.116;4.440;2023-03-23T01:31:00;4.72;;;1.23;;
77872;SDS011;67068;52.116;4.440;2023-03-23T01:33:25;3.95;;;1.33;;
77872;SDS011;67068;52.116;4.440;2023-03-23T01:35:50;5.17;;;1.30;;
77872;SDS011;67068;52.116;4.440;2023-03-23T01:38:15;6.47;;;1.70;;
77872;SDS011;67068;52.116;4.440;2023-03-23T01:40:41;6.37;;;1.30;;
77872;SDS011;67068;52.116;4.440;2023-03-23T01:43:13;3.60;;;1.10;;
77872;SDS011;67068;52.116;4.440;2023-03-23T01:45:38;5.32;;;1.40;;
77872;SDS011;67068;52.116;4.440;2023-03-23T01:48:07;4.22;;;1.20;;
77872;SDS011;67068;52.116;4.440;2023-03-23T01:50:36;4.68;;;1.10;;
77872;SDS011;67068;52.116;4.440;2023-03-23T01:55:27;4.63;;;1.30;;
77872;SDS011;67068;52.116;4.440;2023-03-23T01:57:53;3.92;;;1.30;;
77872;SDS011;67068;52.116;4.440;2023-03-23T02:00:19;5.40;;;1.35;;
77872;SDS011;67068;52.116;4.440;2023-03-23T02:02:47;3.92;;;0.98;;
77872;SDS011;67068;52.116;4.440;2023-03-23T02:05:14;4.60;;;1.27;;
77872;SDS011;67068;52.116;4.440;2023-03-23T02:07:40;3.35;;;1.08;;
77872;SDS011;67068;52.116;4.440;2023-03-23T02:10:05;5.55;;;1.20;;
77872;SDS011;67068;52.116;4.440;2023-03-23T02:12:31;3.83;;;1.13;;
77872;SDS011;67068;52.116;4.440;2023-03-23T02:14:57;4.15;;;1.17;;
77872;SDS011;67068;52.116;4.440;2023-03-23T02:17:25;3.60;;;1.10;;
77872;SDS011;67068;52.116;4.440;2023-03-23T02:20:01;6.50;;;1.35;;
77872;SDS011;67068;52.116;4.440;2023-03-23T02:35:52;4.23;;;1.10;;
77872;SDS011;67068;52.116;4.440;2023-03-23T02:37:58;3.58;;;0.90;;
77872;SDS011;67068;52.116;4.440;2023-03-23T02:40:25;4.00;;;1.25;;
77872;SDS011;67068;52.116;4.440;2023-03-23T02:42:53;3.63;;;0.98;;
77872;SDS011;67068;52.116;4.440;2023-03-23T02:45:19;2.35;;;0.93;;
77872;SDS011;67068;52.116;4.440;2023-03-23T02:47:45;2.72;;;0.95;;
77872;SDS011;67068;52.116;4.440;2023-03-23T02:50:13;4.35;;;1.05;;
77872;SDS011;67068;52.116;4.440;2023-03-23T02:52:40;2.67;;;0.90;;
77872;SDS011;67068;52.116;4.440;2023-03-23T02:55:06;4.40;;;1.30;;
77872;SDS011;67068;52.116;4.440;2023-03-23T02:57:32;4.75;;;1.15;;
77872;SDS011;67068;52.116;4.440;2023-03-23T02:59:58;2.90;;;1.02;;
77872;SDS011;67068;52.116;4.440;2023-03-23T03:02:23;2.93;;;1.20;;
77872;SDS011;67068;52.116;4.440;2023-03-23T03:10:23;3.58;;;1.00;;
77872;SDS011;67068;52.116;4.440;2023-03-23T03:17:41;3.33;;;1.00;;
77872;SDS011;67068;52.116;4.440;2023-03-23T03:20:09;3.08;;;0.90;;
77872;SDS011;67068;52.116;4.440;2023-03-23T03:22:36;3.53;;;1.05;;
77872;SDS011;67068;52.116;4.440;2023-03-23T03:25:02;3.47;;;0.90;;
77872;SDS011;67068;52.116;4.440;2023-03-23T03:27:28;2.83;;;0.90;;
77872;SDS011;67068;52.116;4.440;2023-03-23T03:29:54;2.75;;;0.70;;
77872;SDS011;67068;52.116;4.440;2023-03-23T03:32:22;3.35;;;0.80;;
77872;SDS011;67068;52.116;4.440;2023-03-23T03:34:49;3.85;;;1.13;;
77872;SDS011;67068;52.116;4.440;2023-03-23T03:37:15;3.85;;;1.15;;
77872;SDS011;67068;52.116;4.440;2023-03-23T03:39:41;2.42;;;0.90;;
77872;SDS011;67068;52.116;4.440;2023-03-23T03:42:06;2.20;;;0.90;;
77872;SDS011;67068;52.116;4.440;2023-03-23T03:44:32;3.30;;;0.90;;
77872;SDS011;67068;52.116;4.440;2023-03-23T03:46:57;3.42;;;0.90;;
77872;SDS011;67068;52.116;4.440;2023-03-23T03:49:22;3.47;;;1.00;;
77872;SDS011;67068;52.116;4.440;2023-03-23T03:51:48;3.20;;;1.10;;
77872;SDS011;67068;52.116;4.440;2023-03-23T03:54:13;4.63;;;1.20;;
77872;SDS011;67068;52.116;4.440;2023-03-23T03:56:38;3.17;;;1.00;;
77872;SDS011;67068;52.116;4.440;2023-03-23T03:59:08;4.40;;;1.20;;
77872;SDS011;67068;52.116;4.440;2023-03-23T04:01:34;3.90;;;0.80;;
77872;SDS011;67068;52.116;4.440;2023-03-23T04:04:00;3.15;;;0.90;;
77872;SDS011;67068;52.116;4.440;2023-03-23T04:06:25;3.73;;;0.90;;
77872;SDS011;67068;52.116;4.440;2023-03-23T04:08:52;3.42;;;0.88;;
77872;SDS011;67068;52.116;4.440;2023-03-23T04:11:18;4.55;;;1.00;;
77872;SDS011;67068;52.116;4.440;2023-03-23T04:13:43;2.60;;;0.80;;
77872;SDS011;67068;52.116;4.440;2023-03-23T04:16:08;2.20;;;0.80;;
77872;SDS011;67068;52.116;4.440;2023-03-23T04:18:34;2.10;;;0.97;;
77872;SDS011;67068;52.116;4.440;2023-03-23T04:20:59;2.50;;;0.70;;
77872;SDS011;67068;52.116;4.440;2023-03-23T04:23:26;3.95;;;0.90;;
77872;SDS011;67068;52.116;4.440;2023-03-23T04:25:52;4.43;;;0.95;;
77872;SDS011;67068;52.116;4.440;2023-03-23T04:28:18;5.63;;;1.02;;
77872;SDS011;67068;52.116;4.440;2023-03-23T04:30:44;2.67;;;0.85;;
77872;SDS011;67068;52.116;4.440;2023-03-23T04:33:10;3.58;;;0.80;;
77872;SDS011;67068;52.116;4.440;2023-03-23T04:35:39;5.93;;;1.20;;
77872;SDS011;67068;52.116;4.440;2023-03-23T04:38:04;4.28;;;1.13;;
77872;SDS011;67068;52.116;4.440;2023-03-23T04:40:30;3.97;;;1.20;;
77872;SDS011;67068;52.116;4.440;2023-03-23T04:42:55;6.77;;;1.00;;
77872;SDS011;67068;52.116;4.440;2023-03-23T04:45:22;5.45;;;1.38;;
77872;SDS011;67068;52.116;4.440;2023-03-23T04:47:49;3.17;;;0.90;;
77872;SDS011;67068;52.116;4.440;2023-03-23T04:50:18;4.05;;;0.90;;
77872;SDS011;67068;52.116;4.440;2023-03-23T04:52:44;3.38;;;0.73;;
77872;SDS011;67068;52.116;4.440;2023-03-23T04:55:10;4.50;;;0.70;;
77872;SDS011;67068;52.116;4.440;2023-03-23T04:57:35;4.50;;;1.17;;
77872;SDS011;67068;52.116;4.440;2023-03-23T05:00:02;4.67;;;1.00;;
77872;SDS011;67068;52.116;4.440;2023-03-23T05:02:33;3.60;;;0.90;;
77872;SDS011;67068;52.116;4.440;2023-03-23T05:04:58;5.05;;;1.10;;
77872;SDS011;67068;52.116;4.440;2023-03-23T05:07:24;4.17;;;0.93;;
77872;SDS011;67068;52.116;4.440;2023-03-23T05:09:49;6.93;;;1.17;;
77872;SDS011;67068;52.116;4.440;2023-03-23T05:12:14;4.87;;;1.00;;
77872;SDS011;67068;52.116;4.440;2023-03-23T05:14:40;4.40;;;1.08;;
77872;SDS011;67068;52.116;4.440;2023-03-23T05:17:05;4.90;;;1.05;;
77872;SDS011;67068;52.116;4.440;2023-03-23T05:19:32;3.30;;;0.70;;
77872;SDS011;67068;52.116;4.440;2023-03-23T05:21:58;4.88;;;1.25;;
77872;SDS011;67068;52.116;4.440;2023-03-23T05:24:28;2.25;;;0.90;;
77872;SDS011;67068;52.116;4.440;2023-03-23T05:26:56;5.20;;;1.40;;
77872;SDS011;67068;52.116;4.440;2023-03-23T05:29:21;4.20;;;1.10;;
77872;SDS011;67068;52.116;4.440;2023-03-23T05:31:48;3.97;;;0.90;;
77872;SDS011;67068;52.116;4.440;2023-03-23T05:34:13;5.73;;;1.00;;
77872;SDS011;67068;52.116;4.440;2023-03-23T05:36:40;5.47;;;1.30;;
77872;SDS011;67068;52.116;4.440;2023-03-23T05:39:06;4.83;;;0.97;;
77872;SDS011;67068;52.116;4.440;2023-03-23T05:41:31;5.53;;;1.00;;
77872;SDS011;67068;52.116;4.440;2023-03-23T05:43:56;4.57;;;1.02;;
77872;SDS011;67068;52.116;4.440;2023-03-23T05:46:22;4.27;;;0.93;;
77872;SDS011;67068;52.116;4.440;2023-03-23T05:48:47;6.53;;;1.02;;
77872;SDS011;67068;52.116;4.440;2023-03-23T05:51:12;5.03;;;1.00;;
77872;SDS011;67068;52.116;4.440;2023-03-23T05:53:38;5.65;;;1.27;;
77872;SDS011;67068;52.116;4.440;2023-03-23T05:56:03;1.93;;;0.63;;
77872;SDS011;67068;52.116;4.440;2023-03-23T05:58:29;3.47;;;0.90;;
77872;SDS011;67068;52.116;4.440;2023-03-23T06:00:54;6.45;;;1.20;;
77872;SDS011;67068;52.116;4.440;2023-03-23T06:03:20;3.88;;;1.02;;
77872;SDS011;67068;52.116;4.440;2023-03-23T06:05:46;6.38;;;1.40;;
77872;SDS011;67068;52.116;4.440;2023-03-23T06:08:11;4.73;;;1.17;;
77872;SDS011;67068;52.116;4.440;2023-03-23T06:10:37;5.47;;;1.15;;
77872;SDS011;67068;52.116;4.440;2023-03-23T06:13:02;4.63;;;1.00;;
77872;SDS011;67068;52.116;4.440;2023-03-23T06:15:28;4.32;;;1.17;;
77872;SDS011;67068;52.116;4.440;2023-03-23T06:17:58;6.05;;;1.10;;
77872;SDS011;67068;52.116;4.440;2023-03-23T06:20:23;7.90;;;1.40;;
77872;SDS011;67068;52.116;4.440;2023-03-23T06:22:49;4.93;;;1.20;;
77872;SDS011;67068;52.116;4.440;2023-03-23T06:25:14;5.23;;;0.93;;
77872;SDS011;67068;52.116;4.440;2023-03-23T06:27:40;5.55;;;1.02;;
77872;SDS011;67068;52.116;4.440;2023-03-23T06:30:06;7.33;;;1.57;;
77872;SDS011;67068;52.116;4.440;2023-03-23T06:32:32;8.02;;;1.55;;
77872;SDS011;67068;52.116;4.440;2023-03-23T06:34:57;9.50;;;1.38;;
77872;SDS011;67068;52.116;4.440;2023-03-23T06:37:23;6.07;;;1.20;;
77872;SDS011;67068;52.116;4.440;2023-03-23T06:39:49;7.15;;;1.15;;
77872;SDS011;67068;52.116;4.440;2023-03-23T06:42:14;6.20;;;1.20;;
77872;SDS011;67068;52.116;4.440;2023-03-23T06:44:39;4.87;;;1.07;;
77872;SDS011;67068;52.116;4.440;2023-03-23T06:47:05;6.90;;;1.47;;
77872;SDS011;67068;52.116;4.440;2023-03-23T06:49:30;4.13;;;0.90;;
77872;SDS011;67068;52.116;4.440;2023-03-23T06:51:56;6.88;;;1.40;;
77872;SDS011;67068;52.116;4.440;2023-03-23T06:54:22;8.53;;;1.67;;
77872;SDS011;67068;52.116;4.440;2023-03-23T06:56:47;9.63;;;1.45;;
77872;SDS011;67068;52.116;4.440;2023-03-23T06:59:12;7.60;;;1.17;;
77872;SDS011;67068;52.116;4.440;2023-03-23T07:01:38;8.30;;;1.25;;
77872;SDS011;67068;52.116;4.440;2023-03-23T07:04:04;7.50;;;1.50;;
77872;SDS011;67068;52.116;4.440;2023-03-23T07:06:29;7.83;;;1.40;;
77872;SDS011;67068;52.116;4.440;2023-03-23T07:08:54;7.80;;;1.63;;
77872;SDS011;67068;52.116;4.440;2023-03-23T07:11:20;6.53;;;1.33;;
77872;SDS011;67068;52.116;4.440;2023-03-23T07:13:45;6.63;;;1.17;;
77872;SDS011;67068;52.116;4.440;2023-03-23T07:16:11;7.68;;;1.75;;
77872;SDS011;67068;52.116;4.440;2023-03-23T07:18:36;6.03;;;1.27;;
77872;SDS011;67068;52.116;4.440;2023-03-23T07:21:01;8.37;;;1.73;;
77872;SDS011;67068;52.116;4.440;2023-03-23T07:23:28;8.15;;;1.50;;
77872;SDS011;67068;52.116;4.440;2023-03-23T07:25:54;7.22;;;1.40;;
77872;SDS011;67068;52.116;4.440;2023-03-23T07:28:19;7.47;;;1.25;;
77872;SDS011;67068;52.116;4.440;2023-03-23T07:30:45;9.07;;;1.55;;
77872;SDS011;67068;52.116;4.440;2023-03-23T07:33:10;7.53;;;1.40;;
77872;SDS011;67068;52.116;4.440;2023-03-23T07:35:36;7.55;;;1.20;;
77872;SDS011;67068;52.116;4.440;2023-03-23T07:38:03;7.55;;;1.70;;
77872;SDS011;67068;52.116;4.440;2023-03-23T07:40:29;8.13;;;1.45;;
77872;SDS011;67068;52.116;4.440;2023-03-23T07:42:58;7.95;;;1.35;;
77872;SDS011;67068;52.116;4.440;2023-03-23T07:45:24;7.18;;;1.58;;
77872;SDS011;67068;52.116;4.440;2023-03-23T07:47:49;7.22;;;1.20;;
77872;SDS011;67068;52.116;4.440;2023-03-23T07:50:15;8.67;;;1.20;;
77872;SDS011;67068;52.116;4.440;2023-03-23T07:52:40;9.10;;;1.45;;
77872;SDS011;67068;52.116;4.440;2023-03-23T07:55:09;5.55;;;1.15;;
77872;SDS011;67068;52.116;4.440;2023-03-23T07:57:46;9.48;;;1.45;;
77872;SDS011;67068;52.116;4.440;2023-03-23T08:00:12;7.65;;;1.30;;
77872;SDS011;67068;52.116;4.440;2023-03-23T08:02:39;8.40;;;1.27;;
77872;SDS011;67068;52.116;4.440;2023-03-23T08:05:06;7.82;;;1.33;;
77872;SDS011;67068;52.116;4.440;2023-03-23T08:07:33;10.48;;;1.30;;
77872;SDS011;67068;52.116;4.440;2023-03-23T08:09:58;6.13;;;1.25;;
77872;SDS011;67068;52.116;4.440;2023-03-23T08:12:24;8.73;;;1.58;;
77872;SDS011;67068;52.116;4.440;2023-03-23T08:14:50;7.70;;;1.40;;
77872;SDS011;67068;52.116;4.440;2023-03-23T08:17:16;6.63;;;1.10;;
77872;SDS011;67068;52.116;4.440;2023-03-23T08:19:41;8.15;;;1.40;;
77872;SDS011;67068;52.116;4.440;2023-03-23T08:22:08;8.85;;;1.60;;
77872;SDS011;67068;52.116;4.440;2023-03-23T08:24:33;7.53;;;1.20;;
77872;SDS011;67068;52.116;4.440;2023-03-23T08:26:59;8.27;;;1.27;;
77872;SDS011;67068;52.116;4.440;2023-03-23T08:29:24;7.90;;;1.50;;
77872;SDS011;67068;52.116;4.440;2023-03-23T08:31:50;8.82;;;1.77;;
77872;SDS011;67068;52.116;4.440;2023-03-23T08:34:15;8.53;;;1.60;;
77872;SDS011;67068;52.116;4.440;2023-03-23T08:36:41;9.10;;;1.70;;
77872;SDS011;67068;52.116;4.440;2023-03-23T08:39:09;7.57;;;1.60;;
77872;SDS011;67068;52.116;4.440;2023-03-23T08:41:34;9.68;;;1.55;;
77872;SDS011;67068;52.116;4.440;2023-03-23T08:43:59;10.13;;;1.53;;
77872;SDS011;67068;52.116;4.440;2023-03-23T08:46:24;9.10;;;1.80;;
77872;SDS011;67068;52.116;4.440;2023-03-23T08:48:50;8.57;;;1.40;;
77872;SDS011;67068;52.116;4.440;2023-03-23T08:51:15;8.20;;;1.83;;
77872;SDS011;67068;52.116;4.440;2023-03-23T08:53:41;10.25;;;2.05;;
77872;SDS011;67068;52.116;4.440;2023-03-23T08:56:08;8.90;;;1.58;;
77872;SDS011;67068;52.116;4.440;2023-03-23T08:58:35;9.82;;;1.58;;
77872;SDS011;67068;52.116;4.440;2023-03-23T09:01:00;10.27;;;1.77;;
77872;SDS011;67068;52.116;4.440;2023-03-23T09:03:26;7.90;;;1.55;;
77872;SDS011;67068;52.116;4.440;2023-03-23T09:05:51;10.32;;;1.60;;
77872;SDS011;67068;52.116;4.440;2023-03-23T09:08:18;9.13;;;1.77;;
77872;SDS011;67068;52.116;4.440;2023-03-23T09:10:43;7.03;;;1.33;;
77872;SDS011;67068;52.116;4.440;2023-03-23T09:13:08;9.03;;;1.60;;
77872;SDS011;67068;52.116;4.440;2023-03-23T09:15:34;14.80;;;4.83;;
77872;SDS011;67068;52.116;4.440;2023-03-23T09:17:59;13.17;;;3.67;;
77872;SDS011;67068;52.116;4.440;2023-03-23T09:20:26;13.57;;;2.13;;
77872;SDS011;67068;52.116;4.440;2023-03-23T09:22:52;8.73;;;2.45;;
77872;SDS011;67068;52.116;4.440;2023-03-23T09:25:19;12.18;;;3.83;;
77872;SDS011;67068;52.116;4.440;2023-03-23T09:27:47;12.45;;;4.20;;
77872;SDS011;67068;52.116;4.440;2023-03-23T09:30:16;17.88;;;3.72;;
77872;SDS011;67068;52.116;4.440;2023-03-23T09:32:44;15.63;;;3.70;;
77872;SDS011;67068;52.116;4.440;2023-03-23T09:35:09;10.90;;;3.42;;
77872;SDS011;67068;52.116;4.440;2023-03-23T09:37:36;12.18;;;3.17;;
77872;SDS011;67068;52.116;4.440;2023-03-23T09:40:03;13.23;;;3.97;;
77872;SDS011;67068;52.116;4.440;2023-03-23T09:45:09;15.52;;;3.35;;
77872;SDS011;67068;52.116;4.440;2023-03-23T09:47:41;10.77;;;3.45;;
77872;SDS011;67068;52.116;4.440;2023-03-23T09:50:09;12.00;;;3.33;;
77872;SDS011;67068;52.116;4.440;2023-03-23T09:52:41;17.48;;;3.05;;
77872;SDS011;67068;52.116;4.440;2023-03-23T09:55:09;11.32;;;3.05;;
77872;SDS011;67068;52.116;4.440;2023-03-23T10:00:31;11.25;;;3.65;;
77872;SDS011;67068;52.116;4.440;2023-03-23T10:03:02;11.20;;;3.03;;
77872;SDS011;67068;52.116;4.440;2023-03-23T10:07:56;10.88;;;2.85;;
77872;SDS011;67068;52.116;4.440;2023-03-23T10:10:23;12.43;;;2.70;;
77872;SDS011;67068;52.116;4.440;2023-03-23T10:12:52;10.98;;;2.72;;
77872;SDS011;67068;52.116;4.440;2023-03-23T10:15:21;13.80;;;2.55;;
77872;SDS011;67068;52.116;4.440;2023-03-23T10:18:08;11.98;;;2.45;;
77872;SDS011;67068;52.116;4.440;2023-03-23T10:20:41;10.93;;;2.90;;
77872;SDS011;67068;52.116;4.440;2023-03-23T10:28:12;10.33;;;2.77;;
77872;SDS011;67068;52.116;4.440;2023-03-23T10:30:55;11.15;;;3.50;;
77872;SDS011;67068;52.116;4.440;2023-03-23T10:35:55;10.50;;;2.45;;
77872;SDS011;67068;52.116;4.440;2023-03-23T10:39:10;11.40;;;2.50;;
77872;SDS011;67068;52.116;4.440;2023-03-23T10:41:16;13.45;;;2.58;;
77872;SDS011;67068;52.116;4.440;2023-03-23T10:43:41;10.93;;;2.50;;
77872;SDS011;67068;52.116;4.440;2023-03-23T10:48:53;12.00;;;2.97;;
77872;SDS011;67068;52.116;4.440;2023-03-23T10:51:20;13.25;;;2.70;;
77872;SDS011;67068;52.116;4.440;2023-03-23T10:53:51;11.52;;;2.50;;
77872;SDS011;67068;52.116;4.440;2023-03-23T10:56:28;12.85;;;2.90;;
77872;SDS011;67068;52.116;4.440;2023-03-23T10:58:54;11.55;;;2.60;;
77872;SDS011;67068;52.116;4.440;2023-03-23T11:01:20;9.88;;;2.35;;
77872;SDS011;67068;52.116;4.440;2023-03-23T11:03:52;10.55;;;2.63;;
77872;SDS011;67068;52.116;4.440;2023-03-23T11:06:19;11.30;;;2.90;;
77872;SDS011;67068;52.116;4.440;2023-03-23T11:08:52;10.02;;;2.60;;
77872;SDS011;67068;52.116;4.440;2023-03-23T11:13:44;9.93;;;2.03;;
77872;SDS011;67068;52.116;4.440;2023-03-23T11:16:10;10.48;;;2.35;;
77872;SDS011;67068;52.116;4.440;2023-03-23T11:18:39;11.43;;;2.30;;
77872;SDS011;67068;52.116;4.440;2023-03-23T11:21:05;9.85;;;2.50;;
77872;SDS011;67068;52.116;4.440;2023-03-23T11:23:37;10.77;;;2.08;;
77872;SDS011;67068;52.116;4.440;2023-03-23T11:28:45;10.60;;;2.38;;
77872;SDS011;67068;52.116;4.440;2023-03-23T11:31:12;11.07;;;2.63;;
77872;SDS011;67068;52.116;4.440;2023-03-23T11:36:21;10.13;;;2.33;;
77872;SDS011;67068;52.116;4.440;2023-03-23T11:38:54;9.43;;;2.20;;
77872;SDS011;67068;52.116;4.440;2023-03-23T11:41:21;12.48;;;2.40;;
77872;SDS011;67068;52.116;4.440;2023-03-23T11:43:47;9.60;;;1.88;;
77872;SDS011;67068;52.116;4.440;2023-03-23T11:49:25;10.43;;;2.20;;
77872;SDS011;67068;52.116;4.440;2023-03-23T11:51:36;10.68;;;2.00;;
77872;SDS011;67068;52.116;4.440;2023-03-23T11:54:15;9.30;;;2.20;;
77872;SDS011;67068;52.116;4.440;2023-03-23T11:56:43;10.73;;;1.90;;
77872;SDS011;67068;52.116;4.440;2023-03-23T11:59:13;10.65;;;1.95;;
77872;SDS011;67068;52.116;4.440;2023-03-23T12:11:55;9.40;;;2.30;;
77872;SDS011;67068;52.116;4.440;2023-03-23T12:21:59;10.95;;;2.53;;
77872;SDS011;67068;52.116;4.440;2023-03-23T12:44:48;8.13;;;1.90;;
77872;SDS011;67068;52.116;4.440;2023-03-23T12:54:55;10.57;;;1.90;;
77872;SDS011;67068;52.116;4.440;2023-03-23T13:04:47;9.13;;;1.58;;
77872;SDS011;67068;52.116;4.440;2023-03-23T13:07:17;9.23;;;1.92;;
77872;SDS011;67068;52.116;4.440;2023-03-23T13:12:29;9.80;;;1.90;;
77872;SDS011;67068;52.116;4.440;2023-03-23T13:24:55;9.17;;;2.00;;
77872;SDS011;67068;52.116;4.440;2023-03-23T13:27:25;7.13;;;1.45;;
77872;SDS011;67068;52.116;4.440;2023-03-23T13:29:53;11.18;;;2.10;;
77872;SDS011;67068;52.116;4.440;2023-03-23T13:32:18;10.90;;;2.03;;
77872;SDS011;67068;52.116;4.440;2023-03-23T13:34:44;7.20;;;1.40;;
77872;SDS011;67068;52.116;4.440;2023-03-23T13:37:12;8.60;;;1.60;;
77872;SDS011;67068;52.116;4.440;2023-03-23T13:39:54;9.73;;;1.77;;
77872;SDS011;67068;52.116;4.440;2023-03-23T13:42:30;11.65;;;2.30;;
77872;SDS011;67068;52.116;4.440;2023-03-23T13:45:19;8.50;;;1.58;;
77872;SDS011;67068;52.116;4.440;2023-03-23T13:47:46;10.95;;;1.98;;
77872;SDS011;67068;52.116;4.440;2023-03-23T13:55:48;8.98;;;2.00;;
77872;SDS011;67068;52.116;4.440;2023-03-23T13:57:54;8.20;;;1.50;;
77872;SDS011;67068;52.116;4.440;2023-03-23T14:07:52;9.57;;;2.00;;
77872;SDS011;67068;52.116;4.440;2023-03-23T14:10:17;11.00;;;2.17;;
77872;SDS011;67068;52.116;4.440;2023-03-23T14:12:43;8.77;;;1.50;;
77872;SDS011;67068;52.116;4.440;2023-03-23T14:15:13;10.38;;;1.80;;
77872;SDS011;67068;52.116;4.440;2023-03-23T14:17:40;8.77;;;1.88;;
77872;SDS011;67068;52.116;4.440;2023-03-23T14:22:34;12.27;;;1.95;;
77872;SDS011;67068;52.116;4.440;2023-03-23T14:25:13;11.63;;;1.80;;
77872;SDS011;67068;52.116;4.440;2023-03-23T14:27:39;8.23;;;1.75;;
77872;SDS011;67068;52.116;4.440;2023-03-23T14:30:07;11.25;;;1.63;;
77872;SDS011;67068;52.116;4.440;2023-03-23T14:32:33;9.68;;;1.75;;
77872;SDS011;67068;52.116;4.440;2023-03-23T14:34:59;10.63;;;2.00;;
77872;SDS011;67068;52.116;4.440;2023-03-23T14:37:25;10.73;;;2.05;;
77872;SDS011;67068;52.116;4.440;2023-03-23T14:39:52;8.35;;;1.75;;
77872;SDS011;67068;52.116;4.440;2023-03-23T14:42:19;9.52;;;1.67;;
77872;SDS011;67068;52.116;4.440;2023-03-23T14:44:46;9.90;;;1.60;;
77872;SDS011;67068;52.116;4.440;2023-03-23T14:47:34;11.55;;;2.10;;
77872;SDS011;67068;52.116;4.440;2023-03-23T14:49:59;11.40;;;1.90;;
77872;SDS011;67068;52.116;4.440;2023-03-23T14:52:25;9.52;;;1.80;;
77872;SDS011;67068;52.116;4.440;2023-03-23T14:54:51;8.48;;;2.03;;
77872;SDS011;67068;52.116;4.440;2023-03-23T14:57:25;10.47;;;1.80;;
77872;SDS011;67068;52.116;4.440;2023-03-23T14:59:51;9.80;;;1.75;;
77872;SDS011;67068;52.116;4.440;2023-03-23T15:04:42;10.03;;;2.07;;
77872;SDS011;67068;52.116;4.440;2023-03-23T15:07:08;9.25;;;2.00;;
77872;SDS011;67068;52.116;4.440;2023-03-23T15:09:34;9.18;;;1.70;;
77872;SDS011;67068;52.116;4.440;2023-03-23T15:12:03;11.77;;;1.83;;
77872;SDS011;67068;52.116;4.440;2023-03-23T15:14:33;9.07;;;1.90;;
77872;SDS011;67068;52.116;4.440;2023-03-23T15:17:00;9.05;;;2.00;;
77872;SDS011;67068;52.116;4.440;2023-03-23T15:19:33;15.75;;;3.58;;
77872;SDS011;67068;52.116;4.440;2023-03-23T15:22:05;35.33;;;6.20;;
77872;SDS011;67068;52.116;4.440;2023-03-23T15:27:02;36.47;;;7.50;;
77872;SDS011;67068;52.116;4.440;2023-03-23T15:29:28;37.72;;;8.80;;
77872;SDS011;67068;52.116;4.440;2023-03-23T15:31:54;46.80;;;10.97;;
77872;SDS011;67068;52.116;4.440;2023-03-23T15:34:26;44.42;;;9.88;;
77872;SDS011;67068;52.116;4.440;2023-03-23T15:37:03;40.88;;;10.38;;
77872;SDS011;67068;52.116;4.440;2023-03-23T15:39:30;38.45;;;9.75;;
77872;SDS011;67068;52.116;4.440;2023-03-23T15:41:56;33.20;;;8.63;;
77872;SDS011;67068;52.116;4.440;2023-03-23T15:44:25;32.58;;;7.03;;
77872;SDS011;67068;52.116;4.440;2023-03-23T15:46:52;28.55;;;5.60;;
77872;SDS011;67068;52.116;4.440;2023-03-23T15:49:18;23.67;;;5.38;;
77872;SDS011;67068;52.116;4.440;2023-03-23T15:51:43;27.20;;;5.07;;
77872;SDS011;67068;52.116;4.440;2023-03-23T15:54:11;20.90;;;4.50;;
77872;SDS011;67068;52.116;4.440;2023-03-23T15:56:37;18.23;;;4.28;;
77872;SDS011;67068;52.116;4.440;2023-03-23T15:59:02;16.67;;;4.18;;
77872;SDS011;67068;52.116;4.440;2023-03-23T16:01:28;19.63;;;3.40;;
77872;SDS011;67068;52.116;4.440;2023-03-23T16:03:57;19.58;;;3.70;;
77872;SDS011;67068;52.116;4.440;2023-03-23T16:06:23;21.70;;;4.13;;
77872;SDS011;67068;52.116;4.440;2023-03-23T16:08:49;19.02;;;3.38;;
77872;SDS011;67068;52.116;4.440;2023-03-23T16:11:15;19.20;;;3.15;;
77872;SDS011;67068;52.116;4.440;2023-03-23T16:13:41;19.50;;;3.28;;
77872;SDS011;67068;52.116;4.440;2023-03-23T16:16:12;16.55;;;3.75;;
77872;SDS011;67068;52.116;4.440;2023-03-23T16:18:38;13.30;;;2.35;;
77872;SDS011;67068;52.116;4.440;2023-03-23T16:21:04;17.20;;;2.93;;
77872;SDS011;67068;52.116;4.440;2023-03-23T16:23:29;20.40;;;3.58;;
77872;SDS011;67068;52.116;4.440;2023-03-23T16:25:55;15.15;;;3.20;;
77872;SDS011;67068;52.116;4.440;2023-03-23T16:28:20;14.80;;;2.83;;
77872;SDS011;67068;52.116;4.440;2023-03-23T16:30:46;19.23;;;3.43;;
77872;SDS011;67068;52.116;4.440;2023-03-23T16:33:12;13.80;;;2.90;;
77872;SDS011;67068;52.116;4.440;2023-03-23T16:35:37;18.23;;;3.63;;
77872;SDS011;67068;52.116;4.440;2023-03-23T16:38:03;16.77;;;3.10;;
77872;SDS011;67068;52.116;4.440;2023-03-23T16:40:28;15.33;;;3.53;;
77872;SDS011;67068;52.116;4.440;2023-03-23T16:42:53;22.10;;;5.00;;
77872;SDS011;67068;52.116;4.440;2023-03-23T16:45:19;15.65;;;2.90;;
77872;SDS011;67068;52.116;4.440;2023-03-23T16:47:44;17.45;;;4.85;;
77872;SDS011;67068;52.116;4.440;2023-03-23T16:50:11;16.40;;;3.30;;
77872;SDS011;67068;52.116;4.440;2023-03-23T16:52:37;18.95;;;3.88;;
77872;SDS011;67068;52.116;4.440;2023-03-23T16:55:03;13.65;;;3.50;;
77872;SDS011;67068;52.116;4.440;2023-03-23T16:57:28;17.27;;;4.13;;
77872;SDS011;67068;52.116;4.440;2023-03-23T16:59:54;15.52;;;3.25;;
77872;SDS011;67068;52.116;4.440;2023-03-23T17:02:22;19.38;;;4.65;;